createdAt,value
2022-09-22T00:01:37.261Z,7.80
2022-09-22T00:04:26.041Z,7.80
2022-09-22T00:07:14.698Z,7.70
2022-09-22T00:10:03.357Z,7.70
2022-09-22T00:12:54.885Z,7.70
2022-09-22T00:15:47.372Z,7.70
2022-09-22T00:18:37.075Z,7.70
2022-09-22T00:21:28.053Z,7.60
2022-09-22T00:24:18.216Z,7.60
2022-09-22T00:27:07.012Z,7.60
2022-09-22T00:29:57.100Z,7.50
2022-09-22T00:32:45.759Z,7.50
2022-09-22T00:35:36.077Z,7.50
2022-09-22T00:38:24.798Z,7.50
2022-09-22T00:41:18.930Z,7.50
2022-09-22T00:44:34.499Z,7.50
2022-09-22T00:47:37.180Z,7.50
2022-09-22T00:50:26.331Z,7.50
2022-09-22T00:53:18.445Z,7.40
2022-09-22T00:56:13.706Z,7.40
2022-09-22T00:59:07.392Z,7.40
2022-09-22T01:01:57.423Z,7.40
2022-09-22T01:04:48.109Z,7.40
2022-09-22T01:07:37.481Z,7.30
2022-09-22T01:10:27.373Z,7.30
2022-09-22T01:13:25.246Z,7.30
2022-09-22T01:16:35.926Z,7.30
2022-09-22T01:20:02.599Z,7.20
2022-09-22T01:23:18.655Z,7.20
2022-09-22T01:26:48.016Z,7.20
2022-09-22T01:29:57.514Z,7.20
2022-09-22T01:33:06.412Z,7.20
2022-09-22T01:36:19.040Z,7.10
2022-09-22T01:39:14.108Z,7.10
2022-09-22T01:42:08.653Z,7.10
2022-09-22T01:45:03.063Z,7.10
2022-09-22T01:47:56.895Z,7.10
2022-09-22T01:50:51.271Z,7.10
2022-09-22T01:53:43.875Z,7.10
2022-09-22T01:56:35.472Z,7.10
2022-09-22T01:59:28.276Z,7.10
2022-09-22T02:02:23.836Z,7.00
2022-09-22T02:05:18.841Z,7.00
2022-09-22T02:08:13.221Z,7.00
2022-09-22T02:11:09.842Z,7.00
2022-09-22T02:13:58.850Z,7.00
2022-09-22T02:16:48.177Z,7.00
2022-09-22T02:19:40.057Z,7.00
2022-09-22T02:22:32.276Z,7.00
2022-09-22T02:25:21.579Z,7.00
2022-09-22T02:28:11.747Z,7.00
2022-09-22T02:31:19.429Z,6.90
2022-09-22T02:34:09.575Z,6.90
2022-09-22T02:37:07.611Z,6.90
2022-09-22T02:40:08.506Z,6.90
2022-09-22T02:43:04.653Z,6.90
2022-09-22T02:45:59.155Z,6.90
2022-09-22T02:48:51.763Z,6.90
2022-09-22T02:51:42.136Z,6.80
2022-09-22T02:54:30.824Z,6.80
2022-09-22T02:57:21.012Z,6.80
2022-09-22T03:00:10.722Z,6.80
2022-09-22T03:02:59.422Z,6.80
2022-09-22T03:05:48.069Z,6.90
2022-09-22T03:08:36.793Z,6.90
2022-09-22T03:11:26.248Z,6.90
2022-09-22T03:14:16.341Z,6.80
2022-09-22T03:17:05.146Z,6.80
2022-09-22T03:19:53.870Z,6.80
2022-09-22T03:22:43.211Z,6.80
2022-09-22T03:25:31.934Z,6.70
2022-09-22T03:28:21.404Z,6.70
2022-09-22T03:31:12.119Z,6.70
2022-09-22T03:34:01.013Z,6.70
2022-09-22T03:36:50.117Z,6.70
2022-09-22T03:39:38.787Z,6.60
2022-09-22T03:42:27.660Z,6.60
2022-09-22T03:45:16.805Z,6.70
2022-09-22T03:48:06.903Z,6.60
2022-09-22T03:50:55.830Z,6.60
2022-09-22T03:53:44.650Z,6.50
2022-09-22T03:56:33.295Z,6.50
2022-09-22T03:59:21.972Z,6.50
2022-09-22T04:02:10.846Z,6.50
2022-09-22T04:05:00.985Z,6.50
2022-09-22T04:07:49.620Z,6.50
2022-09-22T04:10:38.295Z,6.50
2022-09-22T04:13:26.964Z,6.40
2022-09-22T04:16:15.768Z,6.40
2022-09-22T04:19:05.109Z,6.40
2022-09-22T04:21:57.478Z,6.40
2022-09-22T04:24:46.258Z,6.30
2022-09-22T04:27:34.936Z,6.30
2022-09-22T04:30:23.609Z,6.30
2022-09-22T04:33:12.574Z,6.30
2022-09-22T04:36:01.411Z,6.30
2022-09-22T04:38:51.529Z,6.30
2022-09-22T04:41:40.199Z,6.30
2022-09-22T04:44:31.173Z,6.20
2022-09-22T04:47:23.344Z,6.20
2022-09-22T04:50:12.055Z,6.20
2022-09-22T04:53:00.681Z,6.20
2022-09-22T04:55:52.138Z,6.20
2022-09-22T04:58:40.763Z,6.20
2022-09-22T05:01:29.847Z,6.20
2022-09-22T05:04:18.492Z,6.20
2022-09-22T05:07:07.151Z,6.20
2022-09-22T05:09:56.003Z,6.10
2022-09-22T05:12:46.527Z,6.10
2022-09-22T05:15:35.228Z,6.00
2022-09-22T05:18:23.872Z,6.00
2022-09-22T05:21:12.560Z,6.00
2022-09-22T05:24:01.311Z,6.00
2022-09-22T05:26:50.495Z,6.00
2022-09-22T05:29:40.613Z,6.00
2022-09-22T05:32:29.273Z,5.90
2022-09-22T05:35:20.183Z,5.90
2022-09-22T05:38:08.924Z,5.90
2022-09-22T05:40:57.639Z,5.90
2022-09-22T05:43:46.318Z,5.90
2022-09-22T05:46:36.429Z,6.00
2022-09-22T05:49:25.176Z,6.00
2022-09-22T05:52:13.876Z,6.10
2022-09-22T05:55:02.603Z,6.20
2022-09-22T05:57:57.987Z,6.40
2022-09-22T06:00:46.823Z,6.60
2022-09-22T06:03:36.957Z,7.00
2022-09-22T06:06:25.625Z,7.40
2022-09-22T06:09:14.345Z,7.70
2022-09-22T06:12:03.595Z,7.90
2022-09-22T06:14:52.259Z,8.10
2022-09-22T06:17:40.925Z,8.30
2022-09-22T06:20:31.065Z,8.40
2022-09-22T06:23:19.740Z,8.60
2022-09-22T06:26:08.723Z,8.70
2022-09-22T06:28:57.389Z,8.80
2022-09-22T06:31:46.942Z,8.80
2022-09-22T06:34:36.064Z,8.90
2022-09-22T06:37:26.177Z,9.00
2022-09-22T06:40:17.474Z,9.10
2022-09-22T06:43:12.138Z,9.10
2022-09-22T06:46:02.897Z,9.20
2022-09-22T06:48:52.257Z,9.30
2022-09-22T06:51:41.266Z,9.40
2022-09-22T06:54:31.717Z,9.50
2022-09-22T06:57:20.396Z,9.60
2022-09-22T07:00:10.352Z,9.70
2022-09-22T07:03:05.288Z,10.00
2022-09-22T07:05:55.037Z,10.60
2022-09-22T07:08:43.852Z,11.20
2022-09-22T07:11:38.883Z,11.80
2022-09-22T07:14:29.213Z,11.90
2022-09-22T07:17:17.896Z,11.60
2022-09-22T07:20:08.394Z,11.40
2022-09-22T07:23:00.918Z,11.20
2022-09-22T07:25:56.474Z,11.00
2022-09-22T07:28:51.436Z,10.90
2022-09-22T07:31:41.663Z,10.70
2022-09-22T07:34:30.505Z,10.60
2022-09-22T07:37:19.190Z,10.60
2022-09-22T07:40:09.070Z,10.60
2022-09-22T07:42:57.810Z,10.70
2022-09-22T07:45:55.681Z,10.80
2022-09-22T07:48:46.315Z,10.80
2022-09-22T07:51:35.460Z,10.90
2022-09-22T07:54:24.751Z,10.90
2022-09-22T07:57:13.417Z,10.90
2022-09-22T08:00:02.340Z,10.90
2022-09-22T08:02:57.971Z,10.80
2022-09-22T08:05:50.212Z,10.80
2022-09-22T08:08:43.652Z,10.70
2022-09-22T08:11:32.784Z,10.70
2022-09-22T08:14:23.811Z,10.70
2022-09-22T08:17:12.970Z,10.70
2022-09-22T08:20:04.088Z,10.70
2022-09-22T08:22:54.037Z,10.80
2022-09-22T08:25:43.129Z,10.80
2022-09-22T08:28:31.922Z,10.80
2022-09-22T08:31:21.270Z,10.80
2022-09-22T08:34:11.570Z,10.80
2022-09-22T08:37:01.729Z,10.90
2022-09-22T08:39:50.378Z,10.90
2022-09-22T08:42:39.544Z,10.90
2022-09-22T08:45:33.758Z,11.00
2022-09-22T08:48:44.207Z,11.20
2022-09-22T08:51:53.593Z,11.50
2022-09-22T08:54:44.997Z,11.60
2022-09-22T08:57:56.394Z,11.60
2022-09-22T09:00:50.726Z,11.60
2022-09-22T09:03:57.858Z,11.70
2022-09-22T09:06:55.527Z,11.70
2022-09-22T09:09:58.276Z,11.90
2022-09-22T09:13:00.447Z,12.00
2022-09-22T09:16:01.695Z,12.00
2022-09-22T09:18:58.805Z,12.10
2022-09-22T09:21:55.252Z,12.10
2022-09-22T09:28:03.064Z,12.50
2022-09-22T09:30:55.925Z,12.50
2022-09-22T09:33:55.188Z,12.90
2022-09-22T09:36:48.220Z,13.40
2022-09-22T09:39:38.820Z,13.60
2022-09-22T09:42:31.789Z,13.50
2022-09-22T09:45:25.601Z,13.30
2022-09-22T09:48:28.173Z,13.30
2022-09-22T09:51:16.835Z,13.50
2022-09-22T09:54:14.475Z,13.90
2022-09-22T09:57:08.840Z,14.30
2022-09-22T10:00:34.634Z,14.70
2022-09-22T10:03:29.383Z,14.70
2022-09-22T10:06:26.476Z,14.90
2022-09-22T10:09:25.647Z,14.90
2022-09-22T10:12:29.238Z,14.70
2022-09-22T10:15:26.754Z,14.60
2022-09-22T10:18:35.537Z,14.50
2022-09-22T10:21:25.150Z,14.30
2022-09-22T10:24:29.241Z,14.10
2022-09-22T10:27:24.073Z,14.20
2022-09-22T10:30:24.891Z,14.40
2022-09-22T10:33:18.835Z,14.80
2022-09-22T10:36:11.986Z,15.00
2022-09-22T10:39:01.266Z,15.00
2022-09-22T10:41:50.401Z,14.90
2022-09-22T10:44:45.244Z,14.90
2022-09-22T10:47:55.745Z,14.50
2022-09-22T10:51:05.934Z,14.60
2022-09-22T10:54:20.153Z,14.80
2022-09-22T10:57:17.832Z,14.60
2022-09-22T11:00:15.155Z,14.30
2022-09-22T11:03:43.828Z,14.40
2022-09-22T11:07:09.040Z,14.50
2022-09-22T11:10:21.476Z,14.40
2022-09-22T11:13:21.000Z,14.30
2022-09-22T11:16:34.589Z,14.50
2022-09-22T11:19:48.923Z,14.60
2022-09-22T11:22:56.331Z,14.70
2022-09-22T11:25:57.249Z,14.60
2022-09-22T11:28:57.516Z,14.70
2022-09-22T11:31:50.745Z,14.90
2022-09-22T11:34:52.627Z,15.10
2022-09-22T11:37:53.282Z,15.10
2022-09-22T11:41:01.262Z,15.20
2022-09-22T11:44:02.082Z,15.20
2022-09-22T11:47:01.137Z,15.10
2022-09-22T11:50:17.643Z,14.90
2022-09-22T11:53:30.480Z,14.80
2022-09-22T11:56:34.258Z,14.90
2022-09-22T11:59:34.132Z,15.20
2022-09-22T12:02:28.243Z,15.30
2022-09-22T12:05:27.073Z,15.30
2022-09-22T12:08:18.878Z,15.40
2022-09-22T12:11:09.162Z,15.40
2022-09-22T12:14:00.821Z,15.60
2022-09-22T12:20:49.005Z,15.80
2022-09-22T12:23:44.278Z,15.90
2022-09-22T12:26:38.081Z,16.00
2022-09-22T12:29:30.519Z,16.10
2022-09-22T12:32:25.101Z,16.00
2022-09-22T12:35:20.296Z,15.80
2022-09-22T12:38:14.299Z,15.70
2022-09-22T12:41:04.439Z,15.60
2022-09-22T12:43:53.167Z,15.60
2022-09-22T12:46:45.061Z,15.60
2022-09-22T12:49:33.996Z,15.80
2022-09-22T12:52:59.616Z,15.80
2022-09-22T12:55:50.313Z,16.00
2022-09-22T12:58:43.797Z,16.00
2022-09-22T13:01:34.666Z,16.00
2022-09-22T13:04:23.440Z,15.90
2022-09-22T13:07:34.942Z,15.70
2022-09-22T13:10:56.843Z,16.00
2022-09-22T13:13:48.273Z,16.50
2022-09-22T13:16:37.516Z,16.50
2022-09-22T13:19:26.417Z,16.50
2022-09-22T13:22:19.224Z,16.30
2022-09-22T13:25:25.463Z,16.20
2022-09-22T13:28:16.347Z,16.20
2022-09-22T13:31:17.127Z,16.10
2022-09-22T13:34:25.589Z,16.10
2022-09-22T13:37:19.127Z,16.10
2022-09-22T13:40:11.669Z,16.10
2022-09-22T13:43:06.177Z,16.10
2022-09-22T13:45:55.915Z,16.00
2022-09-22T13:48:46.163Z,15.80
2022-09-22T13:51:34.962Z,15.80
2022-09-22T13:54:27.486Z,15.90
2022-09-22T13:57:21.699Z,16.00
2022-09-22T14:00:24.644Z,16.10
2022-09-22T14:03:20.740Z,16.00
2022-09-22T14:06:14.859Z,15.90
2022-09-22T14:09:04.406Z,15.90
2022-09-22T14:11:53.787Z,15.90
2022-09-22T14:14:42.556Z,15.90
2022-09-22T14:17:32.219Z,15.90
2022-09-22T14:20:21.267Z,15.80
2022-09-22T14:23:18.156Z,15.70
2022-09-22T14:26:27.678Z,15.60
2022-09-22T14:29:24.627Z,15.60
2022-09-22T14:32:18.194Z,15.70
2022-09-22T14:35:08.978Z,16.30
2022-09-22T14:38:02.459Z,16.30
2022-09-22T14:41:00.116Z,16.20
2022-09-22T14:43:50.929Z,15.80
2022-09-22T14:46:42.301Z,15.50
2022-09-22T14:49:39.585Z,15.40
2022-09-22T14:52:31.457Z,15.30
2022-09-22T14:55:34.543Z,15.10
2022-09-22T14:58:27.053Z,15.30
2022-09-22T15:01:39.934Z,15.30
2022-09-22T15:04:31.216Z,15.30
2022-09-22T15:07:24.817Z,15.20
2022-09-22T15:10:25.731Z,15.20
2022-09-22T15:13:21.972Z,15.20
2022-09-22T15:16:40.445Z,15.10
2022-09-22T15:19:31.076Z,15.00
2022-09-22T15:22:19.744Z,15.00
2022-09-22T15:25:10.758Z,15.00
2022-09-22T15:31:00.176Z,14.90
2022-09-22T15:33:50.341Z,15.00
2022-09-22T15:36:45.946Z,14.90
2022-09-22T15:39:34.602Z,14.80
2022-09-22T15:42:23.431Z,14.60
2022-09-22T15:45:14.534Z,14.60
2022-09-22T15:48:03.532Z,14.80
2022-09-22T15:50:53.953Z,14.70
2022-09-22T15:53:42.813Z,14.70
2022-09-22T15:56:31.980Z,14.50
2022-09-22T15:59:24.666Z,14.60
2022-09-22T16:02:13.793Z,14.60
2022-09-22T16:05:04.531Z,14.60
2022-09-22T16:07:55.416Z,14.60
2022-09-22T16:10:45.505Z,14.60
2022-09-22T16:13:34.303Z,14.50
2022-09-22T16:16:23.008Z,14.40
2022-09-22T16:19:11.724Z,14.40
2022-09-22T16:22:00.420Z,14.30
2022-09-22T16:24:50.479Z,14.30
2022-09-22T16:27:39.189Z,14.30
2022-09-22T16:30:28.135Z,14.20
2022-09-22T16:33:16.838Z,14.10
2022-09-22T16:36:05.841Z,14.00
2022-09-22T16:38:55.443Z,13.90
2022-09-22T16:41:47.534Z,13.90
2022-09-22T16:44:36.178Z,13.90
2022-09-22T16:47:24.921Z,13.80
2022-09-22T16:50:13.636Z,13.80
2022-09-22T16:53:02.979Z,13.80
2022-09-22T16:55:51.661Z,13.60
2022-09-22T16:58:41.695Z,13.50
2022-09-22T17:01:31.694Z,13.40
2022-09-22T17:04:21.267Z,13.30
2022-09-22T17:07:10.350Z,13.30
2022-09-22T17:09:59.076Z,13.10
2022-09-22T17:12:47.817Z,13.00
2022-09-22T17:15:37.909Z,12.90
2022-09-22T17:18:26.830Z,12.80
2022-09-22T17:21:21.297Z,12.70
2022-09-22T17:24:10.601Z,12.60
2022-09-22T17:27:00.336Z,12.50
2022-09-22T17:29:48.991Z,12.40
2022-09-22T17:32:39.087Z,12.30
2022-09-22T17:35:27.727Z,12.30
2022-09-22T17:38:16.383Z,12.20
2022-09-22T17:41:10.555Z,12.10
2022-09-22T17:44:01.440Z,12.00
2022-09-22T17:47:08.557Z,12.00
2022-09-22T17:50:15.606Z,12.00
2022-09-22T17:53:21.608Z,12.00
2022-09-22T17:56:13.041Z,11.90
2022-09-22T17:59:01.862Z,11.90
2022-09-22T18:01:53.480Z,11.80
2022-09-22T18:04:42.952Z,11.80
2022-09-22T18:07:35.107Z,11.70
2022-09-22T18:10:26.356Z,11.70
2022-09-22T18:13:15.037Z,11.80
2022-09-22T18:16:19.294Z,11.90
2022-09-22T18:19:08.833Z,12.00
2022-09-22T18:21:57.572Z,11.90
2022-09-22T18:24:48.336Z,11.80
2022-09-22T18:27:37.403Z,11.70
2022-09-22T18:30:26.585Z,11.60
2022-09-22T18:33:15.704Z,11.60
2022-09-22T18:36:04.453Z,11.60
2022-09-22T18:38:54.218Z,11.60
2022-09-22T18:41:44.537Z,11.50
2022-09-22T18:44:33.655Z,11.50
2022-09-22T18:47:23.293Z,11.30
2022-09-22T18:50:14.914Z,11.50
2022-09-22T18:53:03.702Z,11.80
2022-09-22T18:55:52.879Z,12.00
2022-09-22T18:58:42.940Z,12.00
2022-09-22T19:01:34.668Z,12.10
2022-09-22T19:04:26.681Z,12.10
2022-09-22T19:07:32.480Z,12.10
2022-09-22T19:10:22.447Z,12.10
2022-09-22T19:13:12.479Z,12.10
2022-09-22T19:16:02.751Z,12.10
2022-09-22T19:18:52.239Z,12.20
2022-09-22T19:21:41.056Z,12.10
2022-09-22T19:24:31.850Z,12.20
2022-09-22T19:27:24.900Z,12.10
2022-09-22T19:30:14.493Z,12.00
2022-09-22T19:33:04.608Z,12.00
2022-09-22T19:35:53.255Z,12.00
2022-09-22T19:38:41.940Z,12.00
2022-09-22T19:41:30.845Z,12.00
2022-09-22T19:44:21.840Z,12.00
2022-09-22T19:47:10.533Z,12.00
2022-09-22T19:50:00.775Z,12.00
2022-09-22T19:52:49.796Z,12.00
2022-09-22T19:55:38.595Z,12.00
2022-09-22T19:58:27.246Z,12.00
2022-09-22T20:01:29.596Z,11.90
2022-09-22T20:04:19.960Z,12.00
2022-09-22T20:07:10.961Z,12.00
2022-09-22T20:10:02.294Z,12.00
2022-09-22T20:12:51.679Z,12.10
2022-09-22T20:15:40.618Z,12.00
2022-09-22T20:18:29.958Z,12.00
2022-09-22T20:21:18.603Z,11.90
2022-09-22T20:24:10.844Z,11.90
2022-09-22T20:26:59.476Z,12.00
2022-09-22T20:29:48.091Z,11.90
2022-09-22T20:32:36.958Z,11.90
2022-09-22T20:35:25.612Z,11.90
2022-09-22T20:38:14.654Z,11.90
2022-09-22T20:41:04.722Z,11.90
2022-09-22T20:43:53.540Z,11.80
2022-09-22T20:46:42.984Z,11.80
2022-09-22T20:49:32.737Z,11.70
2022-09-22T20:52:21.795Z,11.80
2022-09-22T20:55:11.636Z,11.80
2022-09-22T20:58:04.766Z,11.80
2022-09-22T21:00:55.627Z,11.70
2022-09-22T21:03:44.707Z,11.70
2022-09-22T21:06:33.331Z,11.80
2022-09-22T21:09:39.071Z,11.80
2022-09-22T21:12:31.334Z,11.70
2022-09-22T21:15:22.675Z,11.70
2022-09-22T21:18:11.312Z,11.60
2022-09-22T21:21:01.823Z,11.60
2022-09-22T21:23:51.426Z,11.60
2022-09-22T21:26:40.131Z,11.60
2022-09-22T21:29:29.839Z,11.60
2022-09-22T21:32:20.099Z,11.50
2022-09-22T21:35:10.032Z,11.60
2022-09-22T21:37:58.658Z,11.60
2022-09-22T21:40:47.314Z,11.50
2022-09-22T21:43:36.843Z,11.50
2022-09-22T21:46:28.712Z,11.50
2022-09-22T21:49:18.874Z,11.50
2022-09-22T21:52:07.559Z,11.50
2022-09-22T21:54:56.510Z,11.60
2022-09-22T21:57:45.206Z,11.50
2022-09-22T22:00:51.261Z,11.50
2022-09-22T22:03:42.496Z,11.50
2022-09-22T22:06:36.236Z,11.50
2022-09-22T22:09:26.125Z,11.40
2022-09-22T22:12:14.755Z,11.40
2022-09-22T22:15:03.453Z,11.30
2022-09-22T22:17:52.096Z,11.30
2022-09-22T22:20:40.724Z,11.30
2022-09-22T22:23:34.727Z,11.30
2022-09-22T22:26:26.536Z,11.30
2022-09-22T22:29:15.406Z,11.30
2022-09-22T22:32:05.408Z,11.30
2022-09-22T22:34:55.282Z,11.30
2022-09-22T22:37:45.819Z,11.30
2022-09-22T22:40:35.979Z,11.30
2022-09-22T22:43:24.723Z,11.30
2022-09-22T22:46:16.690Z,11.30
2022-09-22T22:49:07.255Z,11.20
2022-09-22T22:51:55.887Z,11.20
2022-09-22T22:54:44.558Z,11.20
2022-09-22T22:57:34.693Z,11.20
2022-09-22T23:00:23.373Z,11.20
2022-09-22T23:03:12.001Z,11.20
2022-09-22T23:06:01.411Z,11.20
2022-09-22T23:08:50.303Z,11.20
2022-09-22T23:11:40.939Z,11.10
2022-09-22T23:14:31.024Z,11.00
2022-09-22T23:17:19.696Z,11.00
2022-09-22T23:20:09.464Z,10.90
2022-09-22T23:22:58.084Z,10.90
2022-09-22T23:25:50.101Z,10.90
2022-09-22T23:28:39.322Z,11.00
2022-09-22T23:31:29.408Z,11.00
2022-09-22T23:34:18.120Z,11.00
2022-09-22T23:37:06.777Z,10.90
2022-09-22T23:39:55.454Z,10.80
2022-09-22T23:42:44.490Z,10.80
2022-09-22T23:45:33.391Z,10.80
2022-09-22T23:48:24.714Z,10.80
2022-09-22T23:51:13.388Z,10.80
2022-09-22T23:54:02.129Z,10.80
2022-09-22T23:56:50.777Z,10.80
2022-09-22T23:59:39.426Z,10.70
